עמוד ראשי
METAR-TAF:

METAR-TAF

שדות תעופה :

סטוונגר, נורבגיה

קו רוחב: 58-53N, קו אורך: 005-38E, גובה: 0מטר

תצפית מזג אוויר נוכחית

הדו"ח נערך לפני 18דקות, בשעה 06:50 UTC
רוח 4קשר מכיוון צפון
טמפרטורת 16 צלסיוס
לחות 68%
לחץ 1015 hPa
ראות 10 קילומטר או יותר
ללא עננים שבסיסם נמוך מ 5000 רגל או קומולונימבוס

METAR: ENZV 200650Z 36004KT CAVOK 16/10 Q1015 NOSIG

זמן: 09:08 (07:08 UTC)

תחזית

הדו"ח נערך לפני 2 שעות ו 8דקות, בשעה 05:00 UTC
תחזית בתוקף מ 20 ב 06 UTC עד 21 ב 06 UTC
רוח 5קשר מכיוון צפון
ראות 10 קילומטר או יותר
ללא עננים שבסיסם נמוך מ 5000 רגל או קומולונימבוס
יעשה מ
20 ב 10 UTC עד 20 ב 12 UTC
רוח 10קשר מכיוון מערב/צפון-מערב
יעשה מ
20 ב 16 UTC עד 20 ב 18 UTC
רוח 5קשר מכיוון צפון
יעשה מ
21 ב 00 UTC עד 21 ב 02 UTC
רוח 10קשר מכיוון מזרח/דרום-מזרח

TAF: ENZV 200500Z 2006/2106 36005KT CAVOK BECMG 2010/2012 30010KT BECMG 2016/2018 36005KT BECMG 2100/2102 12010KT

תצפיות ותחזיות מזג אוויר לגבי יותר מ- 4,000 שדות תעופה ברחבי העולם. דוחות METAR ו- TAF.

התחנות הזמינות מסומנות בנקודות צהובות ואדומות על גבי המפה.

העבר את העכבר לנקודה הצבעונית על מנת לראות את שם התחנה.

לאחר מכן, לחץ כדי לראות את תוכן ואת תחזיות מזג האוויר.

כדי לשנות את המפה: לחץ על הכפתורים הירוקים עם הפלוס השחור כדי להתקרב; על הכפתור הירוק עם המקף כדי להתרחק; או בחיצים הירוקים למפות סמוכות.


METAR-TAF: